Time;durP1;ratioP1;P1;durP2;ratioP2;P2;SDS_P1;SDS_P2;PMS_P1;PMS_P2;Temp;Humidity;BMP_temperature;BMP_pressure;BME280_temperature;BME280_humidity;BME280_pressure;Samples;Min_cycle;Max_cycle;Signal;HPM_P1;HPM_P2
2024/01/25 00:01:57;;;;;;;26.63;4.43;;;;;;;;;;5048701;28;20029;-64
2024/01/25 00:04:22;;;;;;;30.60;4.93;;;;;;;;;;5051113;28;20056;-63
2024/01/25 00:06:48;;;;;;;27.52;4.72;;;;;;;;;;5051499;28;20167;-63
2024/01/25 00:09:13;;;;;;;27.73;5.13;;;;;;;;;;5049861;28;20033;-63
2024/01/25 00:11:38;;;;;;;25.52;5.03;;;;;;;;;;5051472;28;20021;-63
2024/01/25 00:14:04;;;;;;;23.48;3.90;;;;;;;;;;5049450;28;20461;-63
2024/01/25 00:16:30;;;;;;;27.27;4.63;;;;;;;;;;5050104;28;20170;-63
2024/01/25 00:18:55;;;;;;;27.95;5.00;;;;;;;;;;5052238;28;20025;-64
2024/01/25 00:21:21;;;;;;;37.58;5.00;;;;;;;;;;5053063;28;20040;-63
2024/01/25 00:23:46;;;;;;;36.60;5.03;;;;;;;;;;5049560;28;20509;-63
2024/01/25 00:26:12;;;;;;;23.58;5.00;;;;;;;;;;5048076;28;20025;-64
2024/01/25 00:28:38;;;;;;;32.33;5.10;;;;;;;;;;5045514;28;20033;-63
2024/01/25 00:31:03;;;;;;;25.08;5.18;;;;;;;;;;5035135;28;20025;-63
2024/01/25 00:33:30;;;;;;;24.75;4.78;;;;;;;;;;5048887;28;20095;-64
2024/01/25 00:35:56;;;;;;;22.77;4.22;;;;;;;;;;5049749;28;20025;-64
2024/01/25 00:38:21;;;;;;;32.13;5.70;;;;;;;;;;5051286;28;20034;-64
2024/01/25 00:40:47;;;;;;;26.88;4.88;;;;;;;;;;5046417;28;20071;-63
2024/01/25 00:43:13;;;;;;;29.63;5.25;;;;;;;;;;5050167;28;20061;-64
2024/01/25 00:45:39;;;;;;;29.70;4.70;;;;;;;;;;5047405;28;20033;-63
2024/01/25 00:48:05;;;;;;;26.25;4.57;;;;;;;;;;5050016;28;20032;-64
2024/01/25 00:50:31;;;;;;;28.95;4.93;;;;;;;;;;5049896;28;20127;-63
2024/01/25 00:52:57;;;;;;;29.58;5.05;;;;;;;;;;5050692;28;20061;-63
2024/01/25 00:55:22;;;;;;;31.08;4.57;;;;;;;;;;5051164;28;20111;-62
2024/01/25 00:57:48;;;;;;;30.38;4.68;;;;;;;;;;5049741;28;20044;-63
2024/01/25 01:00:14;;;;;;;31.17;4.40;;;;;;;;;;5048948;28;20041;-63
2024/01/25 01:02:44;;;;;;;40.97;5.65;;;;;;;;;;5050876;28;20469;-63
2024/01/25 01:05:10;;;;;;;29.60;4.73;;;;;;;;;;5051226;28;20120;-63
2024/01/25 01:07:36;;;;;;;23.35;4.00;;;;;;;;;;5049255;28;20036;-63
2024/01/25 01:10:02;;;;;;;29.23;5.15;;;;;;;;;;5051212;28;20361;-62
2024/01/25 01:12:28;;;;;;;29.35;4.60;;;;;;;;;;5050737;28;20050;-62
2024/01/25 01:14:53;;;;;;;30.48;5.00;;;;;;;;;;5048190;28;20033;-62
2024/01/25 01:17:19;;;;;;;29.67;4.53;;;;;;;;;;5050513;28;20462;-64
2024/01/25 01:19:44;;;;;;;25.40;3.97;;;;;;;;;;5048583;28;20037;-63
2024/01/25 01:22:10;;;;;;;25.83;4.43;;;;;;;;;;5050534;28;20045;-64
2024/01/25 01:24:35;;;;;;;27.33;3.80;;;;;;;;;;5045792;28;20477;-64
2024/01/25 01:27:01;;;;;;;25.98;4.50;;;;;;;;;;5049168;28;20666;-63
2024/01/25 01:29:26;;;;;;;26.73;5.20;;;;;;;;;;5047624;28;20033;-63
2024/01/25 01:31:52;;;;;;;32.53;5.07;;;;;;;;;;5050679;28;20120;-64
2024/01/25 01:34:17;;;;;;;21.25;3.72;;;;;;;;;;5047448;28;20043;-63
2024/01/25 01:36:43;;;;;;;22.88;4.13;;;;;;;;;;5049886;28;20532;-63
2024/01/25 01:39:09;;;;;;;31.40;4.95;;;;;;;;;;5040447;28;20040;-62
2024/01/25 01:41:34;;;;;;;36.33;7.45;;;;;;;;;;5048858;28;20122;-64
2024/01/25 01:44:00;;;;;;;25.42;4.72;;;;;;;;;;5048662;28;20025;-62
2024/01/25 01:46:39;;;;;;;26.98;4.93;;;;;;;;;;5047575;28;20029;-63
2024/01/25 01:49:06;;;;;;;24.98;4.72;;;;;;;;;;5046324;28;20036;-63
2024/01/25 01:51:32;;;;;;;28.42;5.38;;;;;;;;;;5050309;28;20041;-63
2024/01/25 01:54:00;;;;;;;25.08;4.03;;;;;;;;;;5047517;28;20040;-63
2024/01/25 01:56:28;;;;;;;27.70;4.63;;;;;;;;;;5050001;28;20466;-63
2024/01/25 01:58:56;;;;;;;26.42;4.43;;;;;;;;;;5049098;28;20033;-63
2024/01/25 02:01:23;;;;;;;26.08;5.00;;;;;;;;;;5050251;28;20032;-63
2024/01/25 02:03:49;;;;;;;24.33;5.05;;;;;;;;;;5045169;28;20033;-63
2024/01/25 02:06:14;;;;;;;30.77;4.47;;;;;;;;;;5051446;28;20354;-63
2024/01/25 02:08:40;;;;;;;31.52;5.75;;;;;;;;;;5045083;28;20040;-64
2024/01/25 02:11:05;;;;;;;24.77;4.10;;;;;;;;;;5048328;28;20075;-63
2024/01/25 02:13:30;;;;;;;30.60;5.00;;;;;;;;;;5049203;28;20449;-63
2024/01/25 02:15:56;;;;;;;31.60;4.65;;;;;;;;;;5048182;28;20414;-63
2024/01/25 02:18:22;;;;;;;33.17;5.65;;;;;;;;;;5049836;28;20037;-64
2024/01/25 02:20:47;;;;;;;26.45;4.38;;;;;;;;;;5048382;28;20037;-63
2024/01/25 02:23:13;;;;;;;35.45;4.65;;;;;;;;;;5045699;28;20041;-63
2024/01/25 02:25:38;;;;;;;28.48;4.47;;;;;;;;;;5048014;28;20104;-62
2024/01/25 02:28:04;;;;;;;24.35;5.85;;;;;;;;;;5045958;28;20087;-62
2024/01/25 02:30:29;;;;;;;24.58;4.20;;;;;;;;;;5036822;28;20101;-63
2024/01/25 02:32:54;;;;;;;19.63;3.55;;;;;;;;;;5049245;28;20068;-63
2024/01/25 02:35:20;;;;;;;27.63;4.35;;;;;;;;;;5048884;28;20457;-63
2024/01/25 02:37:45;;;;;;;29.38;4.57;;;;;;;;;;5051172;28;20033;-63
2024/01/25 02:40:11;;;;;;;26.13;5.25;;;;;;;;;;5046759;28;20063;-63
2024/01/25 02:42:37;;;;;;;29.25;4.53;;;;;;;;;;5047480;28;20408;-62
2024/01/25 02:45:02;;;;;;;19.60;4.45;;;;;;;;;;5047180;28;20367;-63
2024/01/25 02:47:27;;;;;;;32.28;4.95;;;;;;;;;;5042673;28;20037;-63
2024/01/25 02:49:53;;;;;;;28.40;4.40;;;;;;;;;;5038235;28;20033;-63
2024/01/25 02:52:18;;;;;;;26.08;3.97;;;;;;;;;;5049975;28;20051;-62
2024/01/25 02:54:43;;;;;;;21.80;4.03;;;;;;;;;;5050810;28;20056;-63
2024/01/25 02:57:09;;;;;;;29.25;4.03;;;;;;;;;;5051445;28;20579;-63
2024/01/25 02:59:34;;;;;;;27.35;4.03;;;;;;;;;;5052880;28;20104;-63
2024/01/25 03:02:00;;;;;;;32.00;5.18;;;;;;;;;;5053608;28;20036;-63
2024/01/25 03:04:25;;;;;;;27.27;4.18;;;;;;;;;;5050121;28;20029;-63
2024/01/25 03:06:50;;;;;;;28.10;4.93;;;;;;;;;;5041999;28;20108;-63
2024/01/25 03:09:16;;;;;;;26.02;4.05;;;;;;;;;;5046017;28;20411;-62
2024/01/25 03:11:41;;;;;;;27.35;4.13;;;;;;;;;;5046203;28;20040;-63
2024/01/25 03:14:07;;;;;;;27.23;4.45;;;;;;;;;;5053809;28;20041;-63
2024/01/25 03:16:32;;;;;;;24.70;4.50;;;;;;;;;;5049430;28;20037;-63
2024/01/25 03:18:57;;;;;;;22.20;4.35;;;;;;;;;;5033583;28;20038;-63
2024/01/25 03:21:23;;;;;;;22.20;4.25;;;;;;;;;;5039676;28;20032;-63
2024/01/25 03:23:48;;;;;;;24.30;4.25;;;;;;;;;;5053339;28;20132;-63
2024/01/25 03:26:14;;;;;;;25.52;4.32;;;;;;;;;;5053507;28;20383;-63
2024/01/25 03:28:40;;;;;;;26.52;3.75;;;;;;;;;;5040024;28;20371;-62
2024/01/25 03:31:05;;;;;;;27.58;4.25;;;;;;;;;;5049120;28;20061;-63
2024/01/25 03:33:32;;;;;;;29.30;4.63;;;;;;;;;;5033868;28;20034;-63
2024/01/25 03:36:02;;;;;;;28.52;4.95;;;;;;;;;;5033218;28;20037;-63
2024/01/25 03:38:28;;;;;;;27.52;4.32;;;;;;;;;;5034077;28;20026;-63
2024/01/25 03:40:54;;;;;;;29.73;4.32;;;;;;;;;;5048044;28;20033;-62
2024/01/25 03:43:19;;;;;;;23.60;4.55;;;;;;;;;;5033686;28;20457;-63
2024/01/25 03:45:44;;;;;;;30.70;4.88;;;;;;;;;;5034345;28;20036;-63
2024/01/25 03:48:10;;;;;;;27.10;4.82;;;;;;;;;;5032812;28;20021;-62
2024/01/25 03:50:35;;;;;;;31.10;4.80;;;;;;;;;;5033808;28;20374;-63
2024/01/25 03:53:01;;;;;;;27.38;5.10;;;;;;;;;;5032797;28;20034;-63
2024/01/25 03:55:26;;;;;;;23.75;4.10;;;;;;;;;;5036893;28;20084;-62
2024/01/25 03:57:51;;;;;;;24.65;3.75;;;;;;;;;;5053065;28;20111;-62
2024/01/25 04:00:17;;;;;;;29.55;5.32;;;;;;;;;;5052542;28;20132;-63
2024/01/25 04:02:42;;;;;;;28.50;4.43;;;;;;;;;;5035256;28;20030;-63
2024/01/25 04:05:08;;;;;;;29.83;5.13;;;;;;;;;;5032678;28;20428;-63
2024/01/25 04:07:33;;;;;;;31.75;4.88;;;;;;;;;;5047262;28;20040;-63
2024/01/25 04:09:58;;;;;;;33.28;4.40;;;;;;;;;;5051367;28;20025;-63
2024/01/25 04:12:25;;;;;;;43.25;5.47;;;;;;;;;;5032096;28;20120;-63
2024/01/25 04:14:50;;;;;;;31.73;4.82;;;;;;;;;;5033332;28;20021;-63
2024/01/25 04:17:15;;;;;;;22.58;4.15;;;;;;;;;;5037536;28;20105;-62
2024/01/25 04:19:41;;;;;;;29.40;4.95;;;;;;;;;;5051935;28;20033;-63
2024/01/25 04:22:06;;;;;;;31.45;5.07;;;;;;;;;;5051953;28;20481;-62
2024/01/25 04:24:31;;;;;;;33.40;5.18;;;;;;;;;;5053237;28;20036;-63
2024/01/25 04:26:57;;;;;;;41.60;6.30;;;;;;;;;;5038646;28;20030;-62
2024/01/25 04:29:22;;;;;;;36.45;4.93;;;;;;;;;;5040436;28;20041;-63
2024/01/25 04:31:48;;;;;;;31.70;5.60;;;;;;;;;;5052641;28;20370;-62
2024/01/25 04:34:14;;;;;;;35.22;6.00;;;;;;;;;;5052365;28;20626;-64
2024/01/25 04:36:40;;;;;;;33.45;5.45;;;;;;;;;;5050590;28;20037;-62
2024/01/25 04:39:05;;;;;;;35.67;6.00;;;;;;;;;;5035763;28;20029;-62
2024/01/25 04:41:31;;;;;;;31.20;5.18;;;;;;;;;;5049653;28;20032;-64
2024/01/25 04:43:56;;;;;;;34.13;5.13;;;;;;;;;;5051869;28;20067;-62
2024/01/25 04:46:21;;;;;;;32.92;5.70;;;;;;;;;;5051229;28;20032;-62
2024/01/25 04:48:47;;;;;;;31.42;5.10;;;;;;;;;;5052485;28;20393;-63
2024/01/25 04:51:22;;;;;;;34.83;5.07;;;;;;;;;;5045166;28;20033;-63
2024/01/25 04:53:48;;;;;;;38.20;5.75;;;;;;;;;;5044021;28;20074;-63
2024/01/25 04:56:13;;;;;;;33.53;5.65;;;;;;;;;;5051367;28;20710;-62
2024/01/25 04:58:38;;;;;;;32.38;5.88;;;;;;;;;;5052553;28;20020;-64
2024/01/25 05:01:06;;;;;;;32.92;5.57;;;;;;;;;;5049778;28;20110;-62
2024/01/25 05:03:32;;;;;;;34.25;5.20;;;;;;;;;;5048908;28;20028;-63
2024/01/25 05:05:57;;;;;;;29.73;5.30;;;;;;;;;;5051633;28;20549;-63
2024/01/25 05:08:22;;;;;;;29.23;5.25;;;;;;;;;;5051486;28;20040;-63
2024/01/25 05:10:48;;;;;;;37.80;6.97;;;;;;;;;;5033372;28;20359;-64
2024/01/25 05:13:13;;;;;;;40.42;5.57;;;;;;;;;;5030533;28;20115;-63
2024/01/25 05:15:38;;;;;;;33.47;4.85;;;;;;;;;;5032426;28;20060;-63
2024/01/25 05:18:05;;;;;;;38.05;5.15;;;;;;;;;;5031060;28;20532;-63
2024/01/25 05:20:35;;;;;;;30.98;5.30;;;;;;;;;;5032201;28;20069;-63
2024/01/25 05:23:01;;;;;;;28.10;5.22;;;;;;;;;;5050028;28;20037;-63
2024/01/25 05:25:27;;;;;;;40.50;6.03;;;;;;;;;;5051674;28;20082;-64
2024/01/25 05:27:54;;;;;;;34.67;6.30;;;;;;;;;;5044876;28;20129;-64
2024/01/25 05:30:19;;;;;;;36.15;5.82;;;;;;;;;;5047940;28;20355;-63
2024/01/25 05:32:46;;;;;;;40.03;6.00;;;;;;;;;;5041358;28;20530;-63
2024/01/25 05:35:11;;;;;;;31.30;6.00;;;;;;;;;;5050495;28;20021;-64
2024/01/25 05:37:36;;;;;;;34.38;7.00;;;;;;;;;;5052041;28;20078;-63
2024/01/25 05:40:02;;;;;;;32.53;5.45;;;;;;;;;;5036390;28;20489;-63
2024/01/25 05:42:28;;;;;;;33.20;5.57;;;;;;;;;;5031928;28;20076;-63
2024/01/25 05:44:53;;;;;;;37.97;6.18;;;;;;;;;;5032388;28;20029;-63
2024/01/25 05:47:18;;;;;;;35.70;6.00;;;;;;;;;;5031090;28;20672;-64
2024/01/25 05:49:44;;;;;;;32.33;6.25;;;;;;;;;;5031423;28;20030;-63
2024/01/25 05:52:09;;;;;;;27.05;5.05;;;;;;;;;;5045550;28;20033;-64
2024/01/25 05:54:35;;;;;;;46.97;7.00;;;;;;;;;;5051478;28;20523;-63
2024/01/25 05:57:00;;;;;;;31.17;5.88;;;;;;;;;;5051059;28;20033;-63
2024/01/25 05:59:26;;;;;;;49.60;6.97;;;;;;;;;;5046123;28;20025;-64
2024/01/25 06:01:51;;;;;;;32.60;6.50;;;;;;;;;;5049526;28;20087;-63
2024/01/25 06:04:16;;;;;;;41.63;6.65;;;;;;;;;;5050582;28;20021;-64
2024/01/25 06:06:42;;;;;;;39.90;6.10;;;;;;;;;;5046619;28;20033;-63
2024/01/25 06:09:07;;;;;;;37.90;6.78;;;;;;;;;;5037880;28;20033;-63
2024/01/25 06:11:35;;;;;;;43.47;6.85;;;;;;;;;;5052610;28;20064;-63
2024/01/25 06:14:00;;;;;;;40.05;5.97;;;;;;;;;;5050633;28;20454;-64
2024/01/25 06:16:26;;;;;;;40.33;6.55;;;;;;;;;;5050885;28;20043;-64
2024/01/25 06:18:51;;;;;;;37.20;6.20;;;;;;;;;;5050052;28;20056;-64
2024/01/25 06:21:16;;;;;;;45.15;7.25;;;;;;;;;;5051002;28;20036;-63
2024/01/25 06:23:42;;;;;;;37.85;6.95;;;;;;;;;;5051580;28;20143;-63
2024/01/25 06:26:07;;;;;;;33.55;7.00;;;;;;;;;;5054547;28;20034;-62
2024/01/25 06:28:33;;;;;;;54.38;7.05;;;;;;;;;;5035017;28;20057;-63
2024/01/25 06:31:01;;;;;;;40.08;6.93;;;;;;;;;;5037360;28;20033;-63
2024/01/25 06:33:26;;;;;;;36.38;6.45;;;;;;;;;;5048304;28;20033;-63
2024/01/25 06:35:52;;;;;;;47.05;6.90;;;;;;;;;;5057229;28;20025;-65
2024/01/25 06:38:18;;;;;;;52.40;7.32;;;;;;;;;;5062536;28;20493;-64
2024/01/25 06:40:43;;;;;;;37.30;6.45;;;;;;;;;;5044604;28;20103;-64
2024/01/25 06:43:09;;;;;;;46.67;7.53;;;;;;;;;;5035705;28;20037;-65
2024/01/25 06:45:35;;;;;;;43.83;7.00;;;;;;;;;;5038256;28;20064;-64
2024/01/25 06:48:00;;;;;;;33.35;6.50;;;;;;;;;;5053316;28;20477;-65
2024/01/25 06:50:25;;;;;;;43.75;6.80;;;;;;;;;;5051997;28;20033;-64
2024/01/25 06:52:53;;;;;;;37.78;6.15;;;;;;;;;;5054234;28;20068;-65
2024/01/25 06:55:19;;;;;;;39.35;6.95;;;;;;;;;;5052748;28;20045;-65
2024/01/25 06:57:44;;;;;;;49.45;7.05;;;;;;;;;;5054437;28;20362;-65
2024/01/25 07:00:12;;;;;;;51.72;6.28;;;;;;;;;;5052625;28;20036;-64
2024/01/25 07:02:38;;;;;;;44.80;6.65;;;;;;;;;;5048496;28;20033;-64
2024/01/25 07:05:04;;;;;;;46.95;7.40;;;;;;;;;;5052122;28;20090;-64
2024/01/25 07:07:32;;;;;;;47.00;8.25;;;;;;;;;;5054360;28;20033;-66
2024/01/25 07:09:57;;;;;;;46.38;7.57;;;;;;;;;;5053914;28;20494;-65
2024/01/25 07:12:23;;;;;;;48.88;7.88;;;;;;;;;;5046341;28;20108;-64
2024/01/25 07:14:48;;;;;;;44.15;6.90;;;;;;;;;;5052072;28;20064;-65
2024/01/25 07:17:13;;;;;;;41.80;7.03;;;;;;;;;;5053221;28;20426;-65
2024/01/25 07:19:39;;;;;;;45.50;7.47;;;;;;;;;;5053391;28;20079;-65
2024/01/25 07:22:04;;;;;;;51.58;7.28;;;;;;;;;;5053100;28;20049;-64
2024/01/25 07:24:30;;;;;;;48.53;7.45;;;;;;;;;;5052858;28;20159;-64
2024/01/25 07:26:56;;;;;;;44.35;6.75;;;;;;;;;;5054093;28;20112;-63
2024/01/25 07:29:21;;;;;;;42.03;8.40;;;;;;;;;;5034749;28;20588;-66
2024/01/25 07:31:46;;;;;;;49.35;7.18;;;;;;;;;;5033255;28;20025;-65
2024/01/25 07:34:12;;;;;;;41.85;6.45;;;;;;;;;;5045027;28;20155;-65
2024/01/25 07:36:37;;;;;;;51.13;7.82;;;;;;;;;;5051430;28;20430;-65
2024/01/25 07:39:03;;;;;;;55.20;8.00;;;;;;;;;;5052256;28;20057;-66
2024/01/25 07:41:28;;;;;;;52.30;7.75;;;;;;;;;;5032840;28;20029;-62
2024/01/25 07:43:55;;;;;;;44.30;6.53;;;;;;;;;;5038278;28;20025;-64
2024/01/25 07:46:21;;;;;;;47.65;8.27;;;;;;;;;;5052709;28;20029;-65
2024/01/25 07:48:47;;;;;;;45.42;8.52;;;;;;;;;;5053813;28;20108;-65
2024/01/25 07:51:13;;;;;;;50.10;7.65;;;;;;;;;;5052072;28;20108;-63
2024/01/25 07:53:39;;;;;;;65.43;9.02;;;;;;;;;;5053315;28;20108;-65
2024/01/25 07:56:07;;;;;;;37.08;7.20;;;;;;;;;;5053059;28;20373;-63
2024/01/25 07:58:33;;;;;;;46.08;7.47;;;;;;;;;;5044135;28;20031;-65
2024/01/25 08:00:59;;;;;;;49.80;7.88;;;;;;;;;;5052938;28;20041;-65
2024/01/25 08:03:24;;;;;;;57.45;8.77;;;;;;;;;;5052075;28;20017;-65
2024/01/25 08:05:49;;;;;;;43.97;7.85;;;;;;;;;;5044632;28;20052;-64
2024/01/25 08:08:15;;;;;;;59.03;8.23;;;;;;;;;;5046976;28;20025;-63
2024/01/25 08:10:40;;;;;;;44.40;8.15;;;;;;;;;;5048822;28;20041;-63
2024/01/25 08:13:06;;;;;;;40.17;8.07;;;;;;;;;;5051342;28;20029;-63
2024/01/25 08:15:31;;;;;;;49.10;8.50;;;;;;;;;;5051019;28;20163;-65
2024/01/25 08:17:57;;;;;;;52.72;8.85;;;;;;;;;;5033120;28;20470;-64
2024/01/25 08:20:22;;;;;;;47.72;8.00;;;;;;;;;;5059794;28;20051;-65
2024/01/25 08:22:48;;;;;;;38.10;7.95;;;;;;;;;;5032866;28;20107;-65
2024/01/25 08:25:13;;;;;;;54.38;9.55;;;;;;;;;;5046861;28;20036;-65
2024/01/25 08:27:39;;;;;;;54.25;10.70;;;;;;;;;;5052734;28;20119;-64
2024/01/25 08:30:05;;;;;;;53.22;9.40;;;;;;;;;;5050118;28;20488;-63
2024/01/25 08:32:31;;;;;;;49.50;10.23;;;;;;;;;;5056209;28;20120;-65
2024/01/25 08:34:56;;;;;;;53.78;10.55;;;;;;;;;;5043920;28;20079;-64
2024/01/25 08:37:22;;;;;;;50.47;10.77;;;;;;;;;;5052043;28;20025;-65
2024/01/25 08:39:49;;;;;;;52.75;10.85;;;;;;;;;;5061750;28;20036;-64
2024/01/25 08:42:17;;;;;;;45.83;10.90;;;;;;;;;;5070891;28;20031;-64
2024/01/25 08:44:49;;;;;;;52.47;12.40;;;;;;;;;;5054452;28;20051;-64
2024/01/25 08:47:18;;;;;;;58.25;12.27;;;;;;;;;;5039676;28;20048;-63
2024/01/25 08:49:43;;;;;;;60.95;12.35;;;;;;;;;;5050827;28;20037;-63
2024/01/25 08:52:09;;;;;;;67.35;11.95;;;;;;;;;;5068862;28;20086;-64
2024/01/25 08:54:36;;;;;;;74.93;13.15;;;;;;;;;;5052970;28;20064;-64
2024/01/25 08:57:03;;;;;;;63.03;13.85;;;;;;;;;;5038693;28;20088;-64
2024/01/25 08:59:30;;;;;;;66.13;12.48;;;;;;;;;;5037294;28;20063;-63
2024/01/25 09:01:56;;;;;;;63.85;13.77;;;;;;;;;;5050853;28;20025;-62
2024/01/25 09:04:21;;;;;;;57.05;12.75;;;;;;;;;;5050427;28;20035;-66
2024/01/25 09:06:47;;;;;;;61.05;13.63;;;;;;;;;;5050577;28;20028;-64
2024/01/25 09:09:12;;;;;;;55.60;13.57;;;;;;;;;;5042146;28;20054;-64
2024/01/25 09:11:38;;;;;;;62.45;13.45;;;;;;;;;;5068702;28;20381;-63
2024/01/25 09:14:03;;;;;;;55.05;15.43;;;;;;;;;;5051205;28;20029;-65
2024/01/25 09:16:28;;;;;;;62.67;15.50;;;;;;;;;;5041517;28;20175;-65
2024/01/25 09:18:54;;;;;;;60.95;16.02;;;;;;;;;;5034038;28;20025;-63
2024/01/25 09:21:19;;;;;;;59.33;14.35;;;;;;;;;;5048898;28;20195;-64
2024/01/25 09:23:45;;;;;;;62.70;16.35;;;;;;;;;;5048278;28;20110;-64
2024/01/25 09:26:10;;;;;;;48.55;14.10;;;;;;;;;;5063324;28;20025;-65
2024/01/25 09:28:36;;;;;;;55.80;14.10;;;;;;;;;;5044789;28;20544;-64
2024/01/25 09:31:02;;;;;;;55.53;15.88;;;;;;;;;;5048532;28;20432;-64
2024/01/25 09:33:29;;;;;;;60.25;15.15;;;;;;;;;;5050547;28;20021;-65
2024/01/25 09:35:55;;;;;;;49.75;13.43;;;;;;;;;;5051239;28;20471;-66
2024/01/25 09:38:20;;;;;;;58.33;15.43;;;;;;;;;;5050918;28;20108;-65
2024/01/25 09:40:46;;;;;;;63.17;14.57;;;;;;;;;;5055837;28;20037;-65
2024/01/25 09:43:12;;;;;;;65.00;13.80;;;;;;;;;;5030732;28;20044;-64
2024/01/25 09:45:37;;;;;;;48.03;13.35;;;;;;;;;;5044411;28;20120;-63
2024/01/25 09:48:04;;;;;;;51.10;12.88;;;;;;;;;;5050757;28;20036;-63
2024/01/25 09:50:33;;;;;;;56.40;13.85;;;;;;;;;;5050370;28;20094;-63
2024/01/25 09:52:59;;;;;;;34.47;10.25;;;;;;;;;;5051450;28;20033;-62
2024/01/25 09:55:26;;;;;;;43.40;10.40;;;;;;;;;;5050211;28;20032;-65
2024/01/25 09:57:57;;;;;;;40.35;10.90;;;;;;;;;;5051299;28;20425;-64
2024/01/25 10:00:23;;;;;;;42.33;12.60;;;;;;;;;;5051155;28;20082;-65
2024/01/25 10:02:51;;;;;;;36.28;10.50;;;;;;;;;;5055388;28;20378;-65
2024/01/25 10:05:18;;;;;;;43.17;10.13;;;;;;;;;;5054083;28;20052;-65
2024/01/25 10:07:45;;;;;;;35.63;10.60;;;;;;;;;;5055392;28;20044;-62
2024/01/25 10:10:12;;;;;;;42.97;10.43;;;;;;;;;;5045615;28;20044;-64
2024/01/25 10:12:39;;;;;;;38.67;10.27;;;;;;;;;;5053419;28;20090;-64
2024/01/25 10:15:05;;;;;;;37.83;9.60;;;;;;;;;;5051481;28;20048;-67
2024/01/25 10:17:31;;;;;;;35.38;9.25;;;;;;;;;;5054256;28;20400;-63
2024/01/25 10:19:57;;;;;;;42.85;10.40;;;;;;;;;;5060084;28;20028;-65
2024/01/25 10:22:22;;;;;;;34.90;9.40;;;;;;;;;;5055524;28;20578;-65
2024/01/25 10:24:50;;;;;;;38.88;9.63;;;;;;;;;;5053866;28;20041;-65
2024/01/25 10:27:16;;;;;;;44.30;10.18;;;;;;;;;;5052909;28;20064;-65
2024/01/25 10:29:41;;;;;;;42.67;9.75;;;;;;;;;;5050476;28;20053;-64
2024/01/25 10:32:08;;;;;;;36.72;9.82;;;;;;;;;;5064298;28;20033;-64
2024/01/25 10:34:36;;;;;;;37.70;9.63;;;;;;;;;;5054506;28;20039;-64
2024/01/25 10:37:04;;;;;;;41.00;10.27;;;;;;;;;;5054384;28;20029;-65
2024/01/25 10:39:31;;;;;;;45.90;9.27;;;;;;;;;;5053717;28;20032;-65
2024/01/25 10:41:58;;;;;;;40.20;9.65;;;;;;;;;;5052018;28;20033;-65
2024/01/25 10:44:24;;;;;;;40.45;9.75;;;;;;;;;;5033859;28;20041;-65
2024/01/25 10:46:49;;;;;;;35.53;9.35;;;;;;;;;;5052830;28;20481;-64
2024/01/25 10:49:17;;;;;;;36.05;9.63;;;;;;;;;;5033660;28;20036;-63
2024/01/25 10:51:43;;;;;;;33.53;9.60;;;;;;;;;;5052728;28;20033;-65
2024/01/25 10:54:09;;;;;;;37.70;10.68;;;;;;;;;;5053677;28;20024;-63
2024/01/25 10:56:36;;;;;;;41.05;10.80;;;;;;;;;;5053834;28;20389;-64
2024/01/25 10:59:02;;;;;;;41.90;11.18;;;;;;;;;;5052212;28;20435;-65
2024/01/25 11:01:27;;;;;;;34.70;10.18;;;;;;;;;;5053244;28;20029;-64
2024/01/25 11:03:54;;;;;;;42.35;10.95;;;;;;;;;;5037052;28;20030;-65
2024/01/25 11:06:24;;;;;;;37.75;11.15;;;;;;;;;;5051962;28;20059;-64
2024/01/25 11:08:49;;;;;;;41.50;11.13;;;;;;;;;;5054282;28;20417;-64
2024/01/25 11:11:18;;;;;;;38.58;10.55;;;;;;;;;;5040964;28;20037;-63
2024/01/25 11:13:44;;;;;;;34.75;10.95;;;;;;;;;;5033981;28;20470;-65
2024/01/25 11:16:13;;;;;;;50.33;11.23;;;;;;;;;;5043251;28;20029;-65
2024/01/25 11:18:52;;;;;;;46.55;11.45;;;;;;;;;;5051693;28;20385;-63
2024/01/25 11:21:43;;;;;;;46.00;11.93;;;;;;;;;;5052864;28;20029;-63
2024/01/25 11:24:30;;;;;;;39.33;10.95;;;;;;;;;;5040225;28;20049;-63
2024/01/25 11:26:56;;;;;;;39.83;11.18;;;;;;;;;;5046814;28;20038;-63
2024/01/25 11:29:23;;;;;;;42.80;12.13;;;;;;;;;;5033200;28;20378;-64
2024/01/25 11:31:51;;;;;;;43.22;12.52;;;;;;;;;;5050803;28;20147;-63
2024/01/25 11:34:17;;;;;;;45.40;12.07;;;;;;;;;;5052647;28;20037;-62
2024/01/25 11:36:43;;;;;;;45.17;11.52;;;;;;;;;;5053079;28;20021;-63
2024/01/25 11:39:11;;;;;;;44.22;11.93;;;;;;;;;;5053345;28;20462;-63
2024/01/25 11:41:36;;;;;;;43.28;11.68;;;;;;;;;;5051245;28;20115;-63
2024/01/25 11:44:05;;;;;;;32.13;11.07;;;;;;;;;;5053688;28;20112;-63
2024/01/25 11:46:31;;;;;;;41.00;10.35;;;;;;;;;;5052392;28;20032;-63
2024/01/25 11:49:00;;;;;;;45.47;12.15;;;;;;;;;;5051838;28;20035;-63
2024/01/25 11:51:25;;;;;;;39.45;11.13;;;;;;;;;;5052766;28;20028;-63
2024/01/25 11:53:50;;;;;;;42.65;11.68;;;;;;;;;;5053381;28;20033;-62
2024/01/25 11:56:21;;;;;;;43.10;12.23;;;;;;;;;;5051668;28;20498;-63
2024/01/25 11:58:47;;;;;;;34.25;10.45;;;;;;;;;;5047757;28;20405;-64
2024/01/25 12:01:14;;;;;;;41.72;11.43;;;;;;;;;;5050370;28;20044;-64
2024/01/25 12:03:40;;;;;;;38.90;11.95;;;;;;;;;;5052347;28;20543;-64
2024/01/25 12:06:09;;;;;;;33.42;9.93;;;;;;;;;;5048596;28;20021;-63
2024/01/25 12:08:35;;;;;;;32.67;9.77;;;;;;;;;;5052900;28;20041;-64
2024/01/25 12:11:04;;;;;;;38.08;9.32;;;;;;;;;;5052999;28;20075;-63
2024/01/25 12:13:33;;;;;;;31.85;9.70;;;;;;;;;;5052055;28;20033;-64
2024/01/25 12:16:00;;;;;;;36.92;10.07;;;;;;;;;;5041569;28;20152;-64
2024/01/25 12:18:26;;;;;;;35.30;9.63;;;;;;;;;;5032323;28;20026;-63
2024/01/25 12:20:51;;;;;;;38.08;10.30;;;;;;;;;;5035998;28;20041;-63
2024/01/25 12:23:16;;;;;;;38.97;9.98;;;;;;;;;;5048238;28;20103;-64
2024/01/25 12:25:42;;;;;;;30.05;8.63;;;;;;;;;;5052048;28;20032;-64
2024/01/25 12:28:07;;;;;;;34.95;9.82;;;;;;;;;;5052216;28;20523;-64
2024/01/25 12:30:33;;;;;;;39.13;9.13;;;;;;;;;;5052007;28;20123;-64
2024/01/25 12:32:58;;;;;;;37.42;9.70;;;;;;;;;;5052086;28;20029;-63
2024/01/25 12:35:23;;;;;;;33.50;8.45;;;;;;;;;;5033099;28;20462;-64
2024/01/25 12:37:49;;;;;;;34.58;8.85;;;;;;;;;;5037601;28;20052;-62
2024/01/25 12:40:14;;;;;;;33.10;8.93;;;;;;;;;;5031350;28;20088;-64
2024/01/25 12:42:40;;;;;;;36.35;9.23;;;;;;;;;;5067731;28;20116;-61
2024/01/25 12:45:05;;;;;;;34.00;8.38;;;;;;;;;;5036521;28;20503;-65
2024/01/25 12:47:31;;;;;;;35.47;8.73;;;;;;;;;;5049652;28;20052;-62
2024/01/25 12:49:56;;;;;;;30.27;8.20;;;;;;;;;;5052454;28;20078;-63
2024/01/25 12:52:21;;;;;;;30.77;8.32;;;;;;;;;;5046146;28;20036;-65
2024/01/25 12:54:47;;;;;;;32.67;8.60;;;;;;;;;;5043088;28;20025;-65
2024/01/25 12:57:12;;;;;;;26.30;7.45;;;;;;;;;;5051194;28;20115;-62
2024/01/25 12:59:38;;;;;;;32.85;7.88;;;;;;;;;;5049965;28;20498;-65
2024/01/25 13:02:05;;;;;;;35.03;8.48;;;;;;;;;;5048618;28;20033;-64
2024/01/25 13:04:30;;;;;;;36.50;9.43;;;;;;;;;;5031715;28;20042;-63
2024/01/25 13:06:56;;;;;;;27.70;8.70;;;;;;;;;;5038704;28;20167;-65
2024/01/25 13:09:22;;;;;;;36.72;9.75;;;;;;;;;;5048957;28;20037;-66
2024/01/25 13:11:48;;;;;;;37.90;9.88;;;;;;;;;;5048550;28;20044;-65
2024/01/25 13:14:13;;;;;;;39.25;9.65;;;;;;;;;;5033599;28;20041;-65
2024/01/25 13:16:39;;;;;;;33.80;9.55;;;;;;;;;;5042233;28;20429;-65
2024/01/25 13:19:04;;;;;;;30.55;8.13;;;;;;;;;;5052470;28;20032;-65
2024/01/25 13:21:30;;;;;;;32.88;7.45;;;;;;;;;;5051070;28;20882;-64
2024/01/25 13:23:55;;;;;;;28.60;6.93;;;;;;;;;;5053141;28;20120;-62
2024/01/25 13:26:21;;;;;;;29.83;6.88;;;;;;;;;;5050455;28;20500;-65
2024/01/25 13:28:46;;;;;;;33.60;7.25;;;;;;;;;;5052570;28;20060;-64
2024/01/25 13:31:11;;;;;;;31.98;6.95;;;;;;;;;;5041951;28;20083;-64
2024/01/25 13:33:37;;;;;;;29.08;6.60;;;;;;;;;;5038214;28;20037;-65
2024/01/25 13:36:04;;;;;;;29.08;6.55;;;;;;;;;;5033098;28;20033;-65
2024/01/25 13:38:30;;;;;;;28.50;6.88;;;;;;;;;;5031756;28;20069;-66
2024/01/25 13:40:55;;;;;;;29.02;6.60;;;;;;;;;;5033472;28;20068;-63
2024/01/25 13:43:21;;;;;;;29.40;6.40;;;;;;;;;;5048664;28;20021;-64
2024/01/25 13:45:46;;;;;;;35.28;7.28;;;;;;;;;;5032302;28;20034;-64
2024/01/25 13:48:11;;;;;;;30.50;6.70;;;;;;;;;;5049893;28;20028;-64
2024/01/25 13:50:37;;;;;;;29.88;7.28;;;;;;;;;;5051409;28;20082;-63
2024/01/25 13:53:02;;;;;;;28.88;7.05;;;;;;;;;;5049375;28;20029;-63
2024/01/25 13:55:28;;;;;;;27.08;7.10;;;;;;;;;;5049579;28;20025;-64
2024/01/25 13:57:53;;;;;;;27.60;6.72;;;;;;;;;;5068642;28;20040;-65
2024/01/25 14:00:18;;;;;;;30.77;6.45;;;;;;;;;;5037495;28;20029;-65
2024/01/25 14:02:45;;;;;;;29.33;7.25;;;;;;;;;;5046986;28;20044;-65
2024/01/25 14:05:11;;;;;;;26.30;7.03;;;;;;;;;;5037427;28;20105;-66
2024/01/25 14:07:37;;;;;;;31.05;7.75;;;;;;;;;;5050932;28;20116;-65
2024/01/25 14:10:02;;;;;;;29.88;6.57;;;;;;;;;;5051364;28;20117;-65
2024/01/25 14:12:28;;;;;;;29.65;6.82;;;;;;;;;;5050372;28;20037;-65
2024/01/25 14:14:53;;;;;;;29.02;6.97;;;;;;;;;;5049374;28;20037;-64
2024/01/25 14:17:18;;;;;;;32.72;7.03;;;;;;;;;;5049393;28;20381;-63
2024/01/25 14:19:44;;;;;;;30.98;7.30;;;;;;;;;;5032099;28;20029;-64